Nearby METAR Reports

 

KDWH - Houston/Dw Hooks, Texas, USA
Distance from station: WNW 3mi, 6km
Updated: 04/01/2020 9:53pm
Clear
Clear
 Wind from ESE
Wind: ESE 6 mph , 9 km/h
Temperature: 63°F , 17°C
Dew Point: 52°F , 11°C
Humidity: 68%
Barometer: 29.99 inHg , 1015.6 hPa
Clouds: Clear
Visibility: 10 miles , 16 km
2020/04/02 02:53 KDWH 020253Z AUTO 12005KT 10SM CLR 17/11 A2999 RMK AO2 SLP155 T01670106 53014
KIAH - Houston/Intnl, Texas, USA
Distance from station: ESE 9mi, 14km
Updated: 04/01/2020 9:53pm
Mostly cloudy
Mostly cloudy
 Wind from calm
Wind: Calm
Temperature: 61°F , 16°C
Dew Point: 54°F , 12°C
Humidity: 77%
Barometer: 30.00 inHg , 1015.9 hPa
Clouds: Mostly cloudy
Visibility: 10 miles , 16 km
Cloud details: Few Clouds 3200 ft
Mostly cloudy 25000 ft
2020/04/02 02:53 KIAH 020253Z 00000KT 10SM FEW032 BKN250 16/12 A3000 RMK AO2 SLP157 T01560117 53011
 
KCXO - Conroe, Texas, USA
Distance from station: NNE 21mi, 34km
Updated: 04/01/2020 9:53pm
Clear
Clear
 Wind from ESE
Wind: ESE 5 mph , 7 km/h
Temperature: 61°F , 16°C
Dew Point: 52°F , 11°C
Humidity: 72%
Barometer: 30.01 inHg , 1016.3 hPa
Clouds: Clear
Visibility: 10 miles , 16 km
2020/04/02 02:53 KCXO 020253Z AUTO 11004KT 10SM CLR 16/11 A3001 RMK AO2 SLP159 T01560111 53017
KMCJ - Houston/Univ, Texas, USA
Distance from station: SSE 24mi, 39km
Updated: 02/19/2020 9:15am
NOT Current

 
2020/02/19 15:15 KMCJ 191515Z AUTO RMK A01 PNO
 
KTME - Houston Exec, Texas, USA
Distance from station: SW 30mi, 48km
Updated: 04/01/2020 10:35pm
Mostly cloudy
Mostly cloudy
 Wind from SE
Wind: SE 5 mph , 7 km/h
Temperature: 63°F , 17°C
Dew Point: 55°F , 13°C
Humidity: 77%
Barometer: 29.99 inHg , 1015.6 hPa
Clouds: Mostly cloudy
Visibility: 10 miles , 16 km
Cloud details: Mostly cloudy 2700 ft
2020/04/02 03:35 KTME 020335Z AUTO 14004KT 10SM BKN027 17/13 A2999 RMK AO2
KHOU - Houston/Hobby, Texas, USA
Distance from station: SSE 32mi, 51km
Updated: 04/01/2020 9:53pm
Mostly cloudy
Mostly cloudy
 Wind from ESE
Wind: ESE 6 mph , 9 km/h
Temperature: 64°F , 18°C
Dew Point: 54°F , 12°C
Humidity: 68%
Barometer: 29.98 inHg , 1015.2 hPa
Clouds: Mostly cloudy
Visibility: 10 miles , 16 km
Cloud details: Few Clouds 3000 ft
Mostly cloudy 25000 ft
2020/04/02 02:53 KHOU 020253Z 11005KT 10SM FEW030 BKN250 18/12 A2998 RMK AO2 SLP158 T01780117 53008
 
KSGR - Houston/Sugar La, Texas, USA
Distance from station: SSW 32mi, 51km
Updated: 04/01/2020 9:53pm
Clear
Clear
 Wind from ESE
Wind: ESE 5 mph , 7 km/h
Temperature: 64°F , 18°C
Dew Point: 55°F , 13°C
Humidity: 73%
Barometer: 29.98 inHg , 1015.2 hPa
Clouds: Clear
Visibility: 10 miles , 16 km
2020/04/02 02:53 KSGR 020253Z AUTO 11004KT 10SM CLR 18/13 A2998 RMK AO2 SLP154 T01830128 53011
K6R3 - Cleveland Muni, Texas, USA
Distance from station: NE 36mi, 58km
Updated: 04/01/2020 10:35pm
Clear
Clear
 Wind from calm
Wind: Calm
Temperature: 55°F , 13°C
Dew Point: 54°F , 12°C
Humidity: 94%
Barometer: 30.01 inHg , 1016.3 hPa
Clouds: Clear
Visibility: 7 miles , 11 km
2020/04/02 03:35 K6R3 020335Z AUTO 00000KT 7SM CLR 13/12 A3001 RMK AO2 T01330116
 
KAXH - Houston/Southwst, Texas, USA
Distance from station: S 37mi, 60km
Updated: 04/01/2020 10:35pm
Clear
Clear
 Wind from calm
Wind: Calm
Temperature: 59°F , 15°C
Dew Point: 55°F , 13°C
Humidity: 88%
Barometer: 29.99 inHg , 1015.6 hPa
Clouds: Clear
Visibility: 10 miles , 16 km
2020/04/02 03:35 KAXH 020335Z AUTO 00000KT 10SM CLR 15/13 A2999 RMK AO2 T01520127
KEFD - Houston/Ellingto, Texas, USA
Distance from station: SSE 37mi, 60km
Updated: 04/01/2020 9:50pm
Partly cloudy
Partly cloudy
 Wind from SE
Wind: SE 7 mph , 11 km/h
Temperature: 63°F , 17°C
Dew Point: 55°F , 13°C
Humidity: 77%
Barometer: 29.97 inHg , 1014.9 hPa
Clouds: Partly cloudy
Visibility: 10 miles , 16 km
Cloud details: Few Clouds 5000 ft
Partly cloudy 25000 ft
2020/04/02 02:50 KEFD 020250Z 13006KT 10SM FEW050 SCT250 17/13 A2997
 
KLVJ - Houston, Texas, USA
Distance from station: SSE 40mi, 64km
Updated: 04/01/2020 9:53pm
Clear
Clear
 Wind from SSE
Wind: SSE 5 mph , 7 km/h
Temperature: 64°F , 18°C
Dew Point: 54°F , 12°C
Humidity: 68%
Barometer: 29.99 inHg , 1015.6 hPa
Clouds: Clear
Visibility: 10 miles , 16 km
2020/04/02 02:53 KLVJ 020253Z AUTO 15004KT 10SM CLR 18/12 A2999 RMK AO2 SLP155 T01830122 52004
KUTS - Huntsville, Texas, USA
Distance from station: N 48mi, 78km
Updated: 04/01/2020 9:53pm
Clear
Clear
 Wind from SSE
Wind: SSE 8 mph , 13 km/h
Temperature: 66°F , 19°C
Dew Point: 50°F , 10°C
Humidity: 56%
Barometer: 29.97 inHg , 1014.9 hPa
Clouds: Clear
Visibility: 10 miles , 16 km
2020/04/02 02:53 KUTS 020253Z AUTO 16007KT 120V180 10SM CLR 19/10 A2997 RMK AO2 SLP146 T01890100 50012